createdAt,value
2017-08-17T00:05:54.663Z,100256.27
2017-08-17T00:16:17.263Z,100262.31
2017-08-17T00:26:40.812Z,100258.09
2017-08-17T00:37:02.881Z,100262.62
2017-08-17T00:42:08.774Z,100265.20
2017-08-17T00:57:52.547Z,100240.36
2017-08-17T01:08:14.863Z,100228.59
2017-08-17T01:18:37.432Z,100218.39
2017-08-17T01:23:42.911Z,100216.40
2017-08-17T01:34:05.246Z,100199.02
2017-08-17T01:44:26.783Z,100194.83
2017-08-17T02:00:04.309Z,100173.41
2017-08-17T02:10:26.192Z,100178.88
2017-08-17T02:15:31.992Z,100185.78
2017-08-17T02:25:53.774Z,100178.55
2017-08-17T02:36:16.475Z,100176.27
2017-08-17T02:46:39.069Z,100172.02
2017-08-17T02:57:01.111Z,100153.98
2017-08-17T03:07:23.743Z,100142.81
2017-08-17T03:17:44.802Z,100143.31
2017-08-17T03:28:07.430Z,100130.61
2017-08-17T03:38:29.290Z,100135.34
2017-08-17T03:48:51.944Z,100132.76
2017-08-17T03:59:14.576Z,100134.38
2017-08-17T04:04:20.405Z,100136.52
2017-08-17T04:14:42.282Z,100145.21
2017-08-17T04:25:05.399Z,100145.54
2017-08-17T04:30:11.241Z,100143.76
2017-08-17T04:40:33.124Z,100138.69
2017-08-17T04:50:55.023Z,100142.73
2017-08-17T05:01:33.175Z,100137.16
2017-08-17T05:06:39.071Z,100136.78
2017-08-17T05:17:01.697Z,100126.24
2017-08-17T05:27:23.635Z,100128.59
2017-08-17T05:37:45.953Z,100126.81
2017-08-17T05:48:08.605Z,100115.80
2017-08-17T05:58:31.372Z,100104.05
2017-08-17T06:08:53.475Z,100105.09
2017-08-17T06:19:16.258Z,100095.33
2017-08-17T06:29:38.350Z,100087.16
2017-08-17T06:40:01.034Z,100075.66
2017-08-17T06:55:40.163Z,100081.41
2017-08-17T07:06:03.671Z,100066.09
2017-08-17T07:11:09.493Z,100067.58
2017-08-17T07:21:36.023Z,100080.63
2017-08-17T07:31:58.955Z,100074.08
2017-08-17T07:42:22.594Z,100067.94
2017-08-17T07:58:02.343Z,100081.61
2017-08-17T08:08:24.444Z,100091.45
2017-08-17T08:18:50.213Z,100083.48
2017-08-17T08:29:13.078Z,100083.97
2017-08-17T08:39:36.673Z,100076.33
2017-08-17T08:55:16.903Z,100052.08
2017-08-17T09:05:39.933Z,100044.66
2017-08-17T09:16:02.764Z,100036.55
2017-08-17T09:26:25.680Z,100021.86
2017-08-17T09:36:48.528Z,100007.48
2017-08-17T09:47:10.544Z,100001.81
2017-08-17T09:57:33.407Z,99998.09
2017-08-17T10:07:56.071Z,99988.92
2017-08-17T10:18:17.448Z,99989.60
2017-08-17T10:28:39.829Z,99978.98
2017-08-17T10:39:02.439Z,99971.02
2017-08-17T10:49:24.035Z,99966.37
2017-08-17T10:59:46.771Z,99960.31
2017-08-17T11:10:09.208Z,99953.59
2017-08-17T11:20:30.828Z,99940.04
2017-08-17T11:30:53.296Z,99934.98
2017-08-17T11:41:15.151Z,99937.88
2017-08-17T11:46:20.945Z,99940.62
2017-08-17T11:56:43.323Z,99925.34
2017-08-17T12:07:05.806Z,99928.30
2017-08-17T12:17:27.581Z,99918.02
2017-08-17T12:27:51.023Z,99909.32
2017-08-17T12:38:12.631Z,99910.92
2017-08-17T12:54:16.741Z,99892.34
2017-08-17T13:04:41.811Z,99898.73
2017-08-17T13:15:04.207Z,99889.42
2017-08-17T13:25:27.510Z,99881.52
2017-08-17T13:35:49.191Z,99879.59
2017-08-17T13:46:10.997Z,99873.62
2017-08-17T13:56:37.682Z,99859.03
2017-08-17T14:06:59.870Z,99861.42
2017-08-17T14:17:22.477Z,99846.76
2017-08-17T14:27:45.180Z,99843.78
2017-08-17T14:38:08.652Z,99857.45
2017-08-17T14:48:35.178Z,99875.42
2017-08-17T14:58:58.772Z,99892.97
2017-08-17T15:09:20.757Z,99910.28
2017-08-17T15:19:44.003Z,99920.34
2017-08-17T15:30:06.639Z,99914.71
2017-08-17T15:35:12.388Z,99911.52
2017-08-17T15:45:34.315Z,99926.08
2017-08-17T15:55:56.299Z,99917.41
2017-08-17T16:06:18.172Z,99924.23
2017-08-17T16:16:40.757Z,99921.60
2017-08-17T16:27:06.725Z,99933.78
2017-08-17T16:37:29.286Z,99943.06
2017-08-17T16:47:51.866Z,99938.23
2017-08-17T16:58:14.424Z,99928.74
2017-08-17T17:08:36.939Z,99919.94
2017-08-17T17:18:58.104Z,99930.24
2017-08-17T17:29:20.717Z,99885.25
2017-08-17T17:45:00.174Z,99859.44
2017-08-17T17:55:22.769Z,99890.28
2017-08-17T18:05:46.785Z,99914.97
2017-08-17T18:16:09.592Z,99947.25
2017-08-17T18:26:37.194Z,99949.06
2017-08-17T18:36:58.286Z,99956.47
2017-08-17T18:47:20.190Z,99978.37
2017-08-17T18:57:42.073Z,99947.73
2017-08-17T19:08:06.548Z,99977.29
2017-08-17T19:18:33.479Z,99965.11
2017-08-17T19:28:57.054Z,99982.06
2017-08-17T19:44:35.289Z,99984.36
2017-08-17T19:54:57.065Z,99971.05
2017-08-17T20:05:20.085Z,99971.67
2017-08-17T20:15:42.807Z,99966.94
2017-08-17T20:26:05.593Z,99959.16
2017-08-17T20:36:28.448Z,99960.45
2017-08-17T20:46:51.065Z,99963.48
2017-08-17T20:57:13.025Z,99960.47
2017-08-17T21:07:35.909Z,99968.48
2017-08-17T21:17:59.513Z,99961.35
2017-08-17T21:28:22.118Z,99960.16
2017-08-17T21:38:45.640Z,99934.39
2017-08-17T21:49:07.494Z,99946.56
2017-08-17T21:59:31.013Z,99945.38
2017-08-17T22:09:55.781Z,99939.86
2017-08-17T22:20:17.996Z,99939.75
2017-08-17T22:30:40.746Z,99931.83
2017-08-17T22:46:20.950Z,99922.49
2017-08-17T22:56:43.085Z,99909.27
2017-08-17T23:07:57.405Z,99910.54
2017-08-17T23:18:20.064Z,99906.15
2017-08-17T23:28:41.893Z,99904.67
2017-08-17T23:44:22.412Z,99895.42
2017-08-17T23:54:44.928Z,99895.09
